sensor_id;sensor_type;location;lat;lon;timestamp;temperature;humidity
65419;DHT22;52027;50.658;14.004;2022-11-18T00:00:50;20.39;43.84
65419;DHT22;52027;50.658;14.004;2022-11-18T00:03:17;20.36;43.84
65419;DHT22;52027;50.658;14.004;2022-11-18T00:05:42;20.39;43.83
65419;DHT22;52027;50.658;14.004;2022-11-18T00:08:07;20.39;43.84
65419;DHT22;52027;50.658;14.004;2022-11-18T00:10:36;20.39;43.80
65419;DHT22;52027;50.658;14.004;2022-11-18T00:13:02;20.41;43.85
65419;DHT22;52027;50.658;14.004;2022-11-18T00:15:46;20.41;43.79
65419;DHT22;52027;50.658;14.004;2022-11-18T00:18:11;20.41;43.78
65419;DHT22;52027;50.658;14.004;2022-11-18T00:20:36;20.42;43.71
65419;DHT22;52027;50.658;14.004;2022-11-18T00:23:03;20.41;43.70
65419;DHT22;52027;50.658;14.004;2022-11-18T00:25:28;20.43;43.71
65419;DHT22;52027;50.658;14.004;2022-11-18T00:27:54;20.42;43.78
65419;DHT22;52027;50.658;14.004;2022-11-18T00:30:19;20.41;43.70
65419;DHT22;52027;50.658;14.004;2022-11-18T00:32:44;20.42;43.73
65419;DHT22;52027;50.658;14.004;2022-11-18T00:35:10;20.36;43.76
65419;DHT22;52027;50.658;14.004;2022-11-18T00:37:35;20.38;43.80
65419;DHT22;52027;50.658;14.004;2022-11-18T00:40:01;20.39;43.77
65419;DHT22;52027;50.658;14.004;2022-11-18T00:42:26;20.35;43.75
65419;DHT22;52027;50.658;14.004;2022-11-18T00:45:10;20.38;43.83
65419;DHT22;52027;50.658;14.004;2022-11-18T00:47:35;20.39;43.83
65419;DHT22;52027;50.658;14.004;2022-11-18T00:50:00;20.39;43.84
65419;DHT22;52027;50.658;14.004;2022-11-18T00:52:26;20.36;43.79
65419;DHT22;52027;50.658;14.004;2022-11-18T00:54:51;20.38;43.83
65419;DHT22;52027;50.658;14.004;2022-11-18T00:57:16;20.38;43.80
65419;DHT22;52027;50.658;14.004;2022-11-18T00:59:42;20.39;43.77
65419;DHT22;52027;50.658;14.004;2022-11-18T01:02:07;20.42;43.74
65419;DHT22;52027;50.658;14.004;2022-11-18T01:04:32;20.41;43.76
65419;DHT22;52027;50.658;14.004;2022-11-18T01:06:58;20.41;43.70
65419;DHT22;52027;50.658;14.004;2022-11-18T01:09:23;20.41;43.71
65419;DHT22;52027;50.658;14.004;2022-11-18T01:11:48;20.39;43.66
65419;DHT22;52027;50.658;14.004;2022-11-18T01:14:32;20.41;43.70
65419;DHT22;52027;50.658;14.004;2022-11-18T01:16:57;20.38;43.68
65419;DHT22;52027;50.658;14.004;2022-11-18T01:19:24;20.38;43.76
65419;DHT22;52027;50.658;14.004;2022-11-18T01:21:49;20.39;43.72
65419;DHT22;52027;50.658;14.004;2022-11-18T01:24:15;20.38;43.75
65419;DHT22;52027;50.658;14.004;2022-11-18T01:26:40;20.36;43.73
65419;DHT22;52027;50.658;14.004;2022-11-18T01:29:06;20.39;43.75
65419;DHT22;52027;50.658;14.004;2022-11-18T01:31:31;20.38;43.79
65419;DHT22;52027;50.658;14.004;2022-11-18T01:33:57;20.38;43.77
65419;DHT22;52027;50.658;14.004;2022-11-18T01:36:24;20.39;43.77
65419;DHT22;52027;50.658;14.004;2022-11-18T01:38:51;20.33;43.73
65419;DHT22;52027;50.658;14.004;2022-11-18T01:41:18;20.38;43.75
65419;DHT22;52027;50.658;14.004;2022-11-18T01:43:47;20.38;43.75
65419;DHT22;52027;50.658;14.004;2022-11-18T01:46:13;20.41;43.72
65419;DHT22;52027;50.658;14.004;2022-11-18T01:48:38;20.42;43.67
65419;DHT22;52027;50.658;14.004;2022-11-18T01:51:07;20.43;43.64
65419;DHT22;52027;50.658;14.004;2022-11-18T01:53:41;20.41;43.63
65419;DHT22;52027;50.658;14.004;2022-11-18T01:56:11;20.42;43.65
65419;DHT22;52027;50.658;14.004;2022-11-18T01:58:42;20.41;43.67
65419;DHT22;52027;50.658;14.004;2022-11-18T02:01:08;20.39;43.67
65419;DHT22;52027;50.658;14.004;2022-11-18T02:03:34;20.39;43.68
65419;DHT22;52027;50.658;14.004;2022-11-18T02:06:01;20.38;43.67
65419;DHT22;52027;50.658;14.004;2022-11-18T02:08:28;20.38;43.68
65419;DHT22;52027;50.658;14.004;2022-11-18T02:10:54;20.39;43.72
65419;DHT22;52027;50.658;14.004;2022-11-18T02:13:19;20.38;43.72
65419;DHT22;52027;50.658;14.004;2022-11-18T02:18:54;20.36;43.72
65419;DHT22;52027;50.658;14.004;2022-11-18T02:24:16;20.41;43.75
65419;DHT22;52027;50.658;14.004;2022-11-18T02:29:54;20.38;43.66
65419;DHT22;52027;50.658;14.004;2022-11-18T02:32:25;20.36;43.68
65419;DHT22;52027;50.658;14.004;2022-11-18T02:35:02;20.38;43.69
65419;DHT22;52027;50.658;14.004;2022-11-18T02:37:34;20.39;43.65
65419;DHT22;52027;50.658;14.004;2022-11-18T02:40:10;20.35;43.66
65419;DHT22;52027;50.658;14.004;2022-11-18T02:42:38;20.38;43.64
65419;DHT22;52027;50.658;14.004;2022-11-18T02:45:09;20.36;43.68
65419;DHT22;52027;50.658;14.004;2022-11-18T02:47:37;20.38;43.69
65419;DHT22;52027;50.658;14.004;2022-11-18T02:50:08;20.36;43.65
65419;DHT22;52027;50.658;14.004;2022-11-18T02:52:36;20.35;43.70
65419;DHT22;52027;50.658;14.004;2022-11-18T02:55:06;20.35;43.69
65419;DHT22;52027;50.658;14.004;2022-11-18T02:57:32;20.35;43.71
65419;DHT22;52027;50.658;14.004;2022-11-18T02:59:59;20.33;43.70
65419;DHT22;52027;50.658;14.004;2022-11-18T03:02:24;20.38;43.68
65419;DHT22;52027;50.658;14.004;2022-11-18T03:04:54;20.35;43.68
65419;DHT22;52027;50.658;14.004;2022-11-18T03:07:31;20.36;43.69
65419;DHT22;52027;50.658;14.004;2022-11-18T03:09:59;20.35;43.72
65419;DHT22;52027;50.658;14.004;2022-11-18T03:12:33;20.36;43.72
65419;DHT22;52027;50.658;14.004;2022-11-18T03:21:10;20.36;43.66
65419;DHT22;52027;50.658;14.004;2022-11-18T03:23:50;20.35;43.68
65419;DHT22;52027;50.658;14.004;2022-11-18T03:26:24;20.35;43.69
65419;DHT22;52027;50.658;14.004;2022-11-18T03:29:14;20.33;43.68
65419;DHT22;52027;50.658;14.004;2022-11-18T03:31:45;20.35;43.66
65419;DHT22;52027;50.658;14.004;2022-11-18T03:34:33;20.33;43.70
65419;DHT22;52027;50.658;14.004;2022-11-18T03:37:01;20.33;43.75
65419;DHT22;52027;50.658;14.004;2022-11-18T03:39:29;20.35;43.74
65419;DHT22;52027;50.658;14.004;2022-11-18T03:42:13;20.33;43.72
65419;DHT22;52027;50.658;14.004;2022-11-18T03:44:45;20.33;43.71
65419;DHT22;52027;50.658;14.004;2022-11-18T03:47:18;20.32;43.70
65419;DHT22;52027;50.658;14.004;2022-11-18T03:49:52;20.33;43.71
65419;DHT22;52027;50.658;14.004;2022-11-18T03:52:23;20.33;43.68
65419;DHT22;52027;50.658;14.004;2022-11-18T03:54:51;20.35;43.70
65419;DHT22;52027;50.658;14.004;2022-11-18T03:57:37;20.35;43.66
65419;DHT22;52027;50.658;14.004;2022-11-18T04:00:08;20.36;43.66
65419;DHT22;52027;50.658;14.004;2022-11-18T04:02:34;20.35;43.66
65419;DHT22;52027;50.658;14.004;2022-11-18T04:05:02;20.39;43.66
65419;DHT22;52027;50.658;14.004;2022-11-18T04:07:35;20.35;43.62
65419;DHT22;52027;50.658;14.004;2022-11-18T04:10:12;20.36;43.61
65419;DHT22;52027;50.658;14.004;2022-11-18T04:12:49;20.36;43.65
65419;DHT22;52027;50.658;14.004;2022-11-18T04:15:15;20.32;43.64
65419;DHT22;52027;50.658;14.004;2022-11-18T04:17:41;20.35;43.65
65419;DHT22;52027;50.658;14.004;2022-11-18T04:20:19;20.36;43.65
65419;DHT22;52027;50.658;14.004;2022-11-18T04:22:44;20.36;43.69
65419;DHT22;52027;50.658;14.004;2022-11-18T04:25:10;20.33;43.64
65419;DHT22;52027;50.658;14.004;2022-11-18T04:27:36;20.35;43.69
65419;DHT22;52027;50.658;14.004;2022-11-18T04:30:01;20.33;43.64
65419;DHT22;52027;50.658;14.004;2022-11-18T04:32:27;20.35;43.64
65419;DHT22;52027;50.658;14.004;2022-11-18T04:34:52;20.35;43.65
65419;DHT22;52027;50.658;14.004;2022-11-18T04:37:17;20.33;43.65
65419;DHT22;52027;50.658;14.004;2022-11-18T04:39:43;20.33;43.69
65419;DHT22;52027;50.658;14.004;2022-11-18T04:42:08;20.28;43.63
65419;DHT22;52027;50.658;14.004;2022-11-18T04:44:33;20.33;43.58
65419;DHT22;52027;50.658;14.004;2022-11-18T04:47:01;20.31;43.46
65419;DHT22;52027;50.658;14.004;2022-11-18T04:49:28;20.33;43.46
65419;DHT22;52027;50.658;14.004;2022-11-18T04:51:54;20.33;43.34
65419;DHT22;52027;50.658;14.004;2022-11-18T04:54:21;20.32;43.32
65419;DHT22;52027;50.658;14.004;2022-11-18T04:56:47;20.35;43.23
65419;DHT22;52027;50.658;14.004;2022-11-18T04:59:15;20.35;43.28
65419;DHT22;52027;50.658;14.004;2022-11-18T05:01:41;20.33;43.22
65419;DHT22;52027;50.658;14.004;2022-11-18T05:04:10;20.33;43.22
65419;DHT22;52027;50.658;14.004;2022-11-18T05:06:36;20.36;43.14
65419;DHT22;52027;50.658;14.004;2022-11-18T05:09:02;20.35;43.18
65419;DHT22;52027;50.658;14.004;2022-11-18T05:11:27;20.32;43.15
65419;DHT22;52027;50.658;14.004;2022-11-18T05:14:12;20.33;43.17
65419;DHT22;52027;50.658;14.004;2022-11-18T05:16:38;20.33;43.30
65419;DHT22;52027;50.658;14.004;2022-11-18T05:19:05;20.36;43.32
65419;DHT22;52027;50.658;14.004;2022-11-18T05:21:32;20.36;43.37
65419;DHT22;52027;50.658;14.004;2022-11-18T05:23:58;20.35;43.33
65419;DHT22;52027;50.658;14.004;2022-11-18T05:26:23;20.39;43.36
65419;DHT22;52027;50.658;14.004;2022-11-18T05:28:49;20.36;43.39
65419;DHT22;52027;50.658;14.004;2022-11-18T05:31:15;20.42;43.44
65419;DHT22;52027;50.658;14.004;2022-11-18T05:33:42;20.42;43.43
65419;DHT22;52027;50.658;14.004;2022-11-18T05:36:11;20.43;43.42
65419;DHT22;52027;50.658;14.004;2022-11-18T05:38:40;20.46;43.45
65419;DHT22;52027;50.658;14.004;2022-11-18T05:41:05;20.45;43.46
65419;DHT22;52027;50.658;14.004;2022-11-18T05:43:31;20.45;43.48
65419;DHT22;52027;50.658;14.004;2022-11-18T05:45:58;20.45;43.47
65419;DHT22;52027;50.658;14.004;2022-11-18T05:48:23;20.48;43.52
65419;DHT22;52027;50.658;14.004;2022-11-18T05:50:51;20.48;43.54
65419;DHT22;52027;50.658;14.004;2022-11-18T05:53:18;20.45;43.58
65419;DHT22;52027;50.658;14.004;2022-11-18T05:55:59;20.45;43.52
65419;DHT22;52027;50.658;14.004;2022-11-18T05:58:25;20.46;43.56
65419;DHT22;52027;50.658;14.004;2022-11-18T06:00:53;20.45;43.64
65419;DHT22;52027;50.658;14.004;2022-11-18T06:03:28;20.46;43.66
65419;DHT22;52027;50.658;14.004;2022-11-18T06:05:55;20.45;43.66
65419;DHT22;52027;50.658;14.004;2022-11-18T06:08:25;20.48;43.66
65419;DHT22;52027;50.658;14.004;2022-11-18T06:10:52;20.45;43.69
65419;DHT22;52027;50.658;14.004;2022-11-18T06:13:22;20.49;43.72
65419;DHT22;52027;50.658;14.004;2022-11-18T06:15:49;20.46;43.68
65419;DHT22;52027;50.658;14.004;2022-11-18T06:18:22;20.49;43.75
65419;DHT22;52027;50.658;14.004;2022-11-18T06:20:49;20.49;43.81
65419;DHT22;52027;50.658;14.004;2022-11-18T06:23:16;20.50;43.75
65419;DHT22;52027;50.658;14.004;2022-11-18T06:25:42;20.52;43.83
65419;DHT22;52027;50.658;14.004;2022-11-18T06:28:09;20.53;43.81
65419;DHT22;52027;50.658;14.004;2022-11-18T06:30:37;20.50;43.87
65419;DHT22;52027;50.658;14.004;2022-11-18T06:33:02;20.53;43.85
65419;DHT22;52027;50.658;14.004;2022-11-18T06:35:28;20.53;43.87
65419;DHT22;52027;50.658;14.004;2022-11-18T06:37:53;20.53;43.88
65419;DHT22;52027;50.658;14.004;2022-11-18T06:40:18;20.53;43.91
65419;DHT22;52027;50.658;14.004;2022-11-18T06:42:44;20.55;43.89
65419;DHT22;52027;50.658;14.004;2022-11-18T06:45:27;20.53;43.96
65419;DHT22;52027;50.658;14.004;2022-11-18T06:48:01;20.53;43.92
65419;DHT22;52027;50.658;14.004;2022-11-18T06:50:31;20.59;43.89
65419;DHT22;52027;50.658;14.004;2022-11-18T06:53:06;20.57;43.94
65419;DHT22;52027;50.658;14.004;2022-11-18T06:55:33;20.56;43.97
65419;DHT22;52027;50.658;14.004;2022-11-18T06:57:59;20.55;43.98
65419;DHT22;52027;50.658;14.004;2022-11-18T07:00:24;20.60;43.96
65419;DHT22;52027;50.658;14.004;2022-11-18T07:02:49;20.60;43.99
65419;DHT22;52027;50.658;14.004;2022-11-18T07:05:15;20.66;43.98
65419;DHT22;52027;50.658;14.004;2022-11-18T07:07:40;20.66;43.93
65419;DHT22;52027;50.658;14.004;2022-11-18T07:10:06;20.66;43.96
65419;DHT22;52027;50.658;14.004;2022-11-18T07:12:31;20.66;43.91
65419;DHT22;52027;50.658;14.004;2022-11-18T07:14:56;20.67;43.92
65419;DHT22;52027;50.658;14.004;2022-11-18T07:17:22;20.67;43.97
65419;DHT22;52027;50.658;14.004;2022-11-18T07:19:47;20.67;43.94
65419;DHT22;52027;50.658;14.004;2022-11-18T07:22:12;20.69;43.98
65419;DHT22;52027;50.658;14.004;2022-11-18T07:24:38;20.69;44.02
65419;DHT22;52027;50.658;14.004;2022-11-18T07:27:04;20.66;44.02
65419;DHT22;52027;50.658;14.004;2022-11-18T07:29:30;20.69;44.11
65419;DHT22;52027;50.658;14.004;2022-11-18T07:31:55;20.70;44.06
65419;DHT22;52027;50.658;14.004;2022-11-18T07:34:20;20.69;44.11
65419;DHT22;52027;50.658;14.004;2022-11-18T07:36:46;20.67;44.18
65419;DHT22;52027;50.658;14.004;2022-11-18T07:39:11;20.70;44.28
65419;DHT22;52027;50.658;14.004;2022-11-18T07:41:38;20.69;44.49
65419;DHT22;52027;50.658;14.004;2022-11-18T07:44:05;20.67;44.61
65419;DHT22;52027;50.658;14.004;2022-11-18T07:46:35;20.67;44.93
65419;DHT22;52027;50.658;14.004;2022-11-18T07:49:03;20.70;45.09
65419;DHT22;52027;50.658;14.004;2022-11-18T07:51:32;20.69;45.27
65419;DHT22;52027;50.658;14.004;2022-11-18T07:53:59;20.69;45.20
65419;DHT22;52027;50.658;14.004;2022-11-18T07:56:25;20.72;45.18
65419;DHT22;52027;50.658;14.004;2022-11-18T07:58:55;20.73;45.14
65419;DHT22;52027;50.658;14.004;2022-11-18T08:01:24;20.76;45.07
65419;DHT22;52027;50.658;14.004;2022-11-18T08:03:53;20.75;45.06
65419;DHT22;52027;50.658;14.004;2022-11-18T08:06:18;20.75;45.04
65419;DHT22;52027;50.658;14.004;2022-11-18T08:08:46;20.75;45.02
65419;DHT22;52027;50.658;14.004;2022-11-18T08:11:14;20.76;44.98
65419;DHT22;52027;50.658;14.004;2022-11-18T08:13:40;20.76;44.96
65419;DHT22;52027;50.658;14.004;2022-11-18T08:16:15;20.77;45.00
65419;DHT22;52027;50.658;14.004;2022-11-18T08:18:41;20.76;44.99
65419;DHT22;52027;50.658;14.004;2022-11-18T08:21:07;20.76;45.02
65419;DHT22;52027;50.658;14.004;2022-11-18T08:23:32;20.76;45.05
65419;DHT22;52027;50.658;14.004;2022-11-18T08:26:13;20.76;45.01
65419;DHT22;52027;50.658;14.004;2022-11-18T08:28:43;20.79;45.03
65419;DHT22;52027;50.658;14.004;2022-11-18T08:31:23;20.77;44.96
65419;DHT22;52027;50.658;14.004;2022-11-18T08:34:01;20.80;44.91
65419;DHT22;52027;50.658;14.004;2022-11-18T08:36:29;20.77;44.88
65419;DHT22;52027;50.658;14.004;2022-11-18T08:38:56;20.77;44.90
65419;DHT22;52027;50.658;14.004;2022-11-18T08:41:42;20.80;44.80
65419;DHT22;52027;50.658;14.004;2022-11-18T08:44:11;20.81;44.76
65419;DHT22;52027;50.658;14.004;2022-11-18T08:46:37;20.79;44.82
65419;DHT22;52027;50.658;14.004;2022-11-18T08:49:03;20.79;44.74
65419;DHT22;52027;50.658;14.004;2022-11-18T08:51:28;20.80;44.76
65419;DHT22;52027;50.658;14.004;2022-11-18T08:53:54;20.80;44.76
65419;DHT22;52027;50.658;14.004;2022-11-18T08:56:20;20.81;44.73
65419;DHT22;52027;50.658;14.004;2022-11-18T08:58:46;20.83;44.77
65419;DHT22;52027;50.658;14.004;2022-11-18T09:01:12;20.83;44.72
65419;DHT22;52027;50.658;14.004;2022-11-18T09:03:47;20.83;44.76
65419;DHT22;52027;50.658;14.004;2022-11-18T09:06:14;20.83;44.75
65419;DHT22;52027;50.658;14.004;2022-11-18T09:08:40;20.80;44.81
65419;DHT22;52027;50.658;14.004;2022-11-18T09:11:18;20.81;44.80
65419;DHT22;52027;50.658;14.004;2022-11-18T09:13:43;20.81;44.76
65419;DHT22;52027;50.658;14.004;2022-11-18T09:16:09;20.83;44.75
65419;DHT22;52027;50.658;14.004;2022-11-18T09:18:35;20.83;44.78
65419;DHT22;52027;50.658;14.004;2022-11-18T09:21:06;20.83;44.78
65419;DHT22;52027;50.658;14.004;2022-11-18T09:23:33;20.84;44.85
65419;DHT22;52027;50.658;14.004;2022-11-18T09:26:01;20.86;44.83
65419;DHT22;52027;50.658;14.004;2022-11-18T09:28:27;20.86;44.80
65419;DHT22;52027;50.658;14.004;2022-11-18T09:30:52;20.86;44.82
65419;DHT22;52027;50.658;14.004;2022-11-18T09:33:18;20.84;44.80
65419;DHT22;52027;50.658;14.004;2022-11-18T09:35:44;20.86;44.79
65419;DHT22;52027;50.658;14.004;2022-11-18T09:38:09;20.83;44.75
65419;DHT22;52027;50.658;14.004;2022-11-18T09:43:29;20.84;44.79
65419;DHT22;52027;50.658;14.004;2022-11-18T09:46:15;20.84;44.82
65419;DHT22;52027;50.658;14.004;2022-11-18T09:48:44;20.84;44.80
65419;DHT22;52027;50.658;14.004;2022-11-18T09:51:42;20.84;44.83
65419;DHT22;52027;50.658;14.004;2022-11-18T09:54:11;20.84;44.78
65419;DHT22;52027;50.658;14.004;2022-11-18T09:56:39;20.83;44.80
65419;DHT22;52027;50.658;14.004;2022-11-18T09:59:10;20.83;44.80
65419;DHT22;52027;50.658;14.004;2022-11-18T10:01:37;20.83;44.79
65419;DHT22;52027;50.658;14.004;2022-11-18T10:04:03;20.87;44.82
65419;DHT22;52027;50.658;14.004;2022-11-18T10:06:31;20.86;44.83
65419;DHT22;52027;50.658;14.004;2022-11-18T10:09:15;20.86;44.81
65419;DHT22;52027;50.658;14.004;2022-11-18T10:12:03;20.86;44.77
65419;DHT22;52027;50.658;14.004;2022-11-18T10:17:41;20.88;44.80
65419;DHT22;52027;50.658;14.004;2022-11-18T10:23:02;20.90;44.80
65419;DHT22;52027;50.658;14.004;2022-11-18T10:25:29;20.87;44.82
65419;DHT22;52027;50.658;14.004;2022-11-18T10:27:54;20.86;44.82
65419;DHT22;52027;50.658;14.004;2022-11-18T10:30:22;20.87;44.91
65419;DHT22;52027;50.658;14.004;2022-11-18T10:35:46;20.86;44.93
65419;DHT22;52027;50.658;14.004;2022-11-18T10:40:44;20.84;44.96
65419;DHT22;52027;50.658;14.004;2022-11-18T10:43:11;20.83;44.93
65419;DHT22;52027;50.658;14.004;2022-11-18T10:45:38;20.86;44.99
65419;DHT22;52027;50.658;14.004;2022-11-18T10:50:48;20.87;45.02
65419;DHT22;52027;50.658;14.004;2022-11-18T10:53:34;20.84;45.06
65419;DHT22;52027;50.658;14.004;2022-11-18T10:56:03;20.86;45.05
65419;DHT22;52027;50.658;14.004;2022-11-18T10:58:30;20.87;45.11
65419;DHT22;52027;50.658;14.004;2022-11-18T11:03:36;20.91;45.15
65419;DHT22;52027;50.658;14.004;2022-11-18T11:06:32;20.90;45.13
65419;DHT22;52027;50.658;14.004;2022-11-18T11:14:18;20.90;45.19
65419;DHT22;52027;50.658;14.004;2022-11-18T11:17:12;20.90;45.19
65419;DHT22;52027;50.658;14.004;2022-11-18T11:22:23;20.88;45.25
65419;DHT22;52027;50.658;14.004;2022-11-18T11:24:49;20.91;45.22
65419;DHT22;52027;50.658;14.004;2022-11-18T11:27:38;20.90;45.27
65419;DHT22;52027;50.658;14.004;2022-11-18T11:33:03;20.90;45.29
65419;DHT22;52027;50.658;14.004;2022-11-18T11:35:41;20.88;45.27
65419;DHT22;52027;50.658;14.004;2022-11-18T11:41:28;20.87;45.33
65419;DHT22;52027;50.658;14.004;2022-11-18T11:47:03;20.91;45.32
65419;DHT22;52027;50.658;14.004;2022-11-18T11:55:17;20.90;45.37
65419;DHT22;52027;50.658;14.004;2022-11-18T12:00:34;20.91;45.33
65419;DHT22;52027;50.658;14.004;2022-11-18T12:03:16;20.91;45.33
65419;DHT22;52027;50.658;14.004;2022-11-18T12:05:44;20.91;45.25
65419;DHT22;52027;50.658;14.004;2022-11-18T12:08:28;20.91;45.28
65419;DHT22;52027;50.658;14.004;2022-11-18T12:14:09;20.93;45.26
65419;DHT22;52027;50.658;14.004;2022-11-18T12:19:10;20.91;45.24
65419;DHT22;52027;50.658;14.004;2022-11-18T12:26:49;20.93;45.21
65419;DHT22;52027;50.658;14.004;2022-11-18T12:29:22;20.94;45.20
65419;DHT22;52027;50.658;14.004;2022-11-18T12:31:53;20.93;45.23
65419;DHT22;52027;50.658;14.004;2022-11-18T12:34:31;20.93;45.30
65419;DHT22;52027;50.658;14.004;2022-11-18T12:39:57;20.93;45.31
65419;DHT22;52027;50.658;14.004;2022-11-18T12:48:31;20.96;45.31
65419;DHT22;52027;50.658;14.004;2022-11-18T12:50:59;20.97;45.29
65419;DHT22;52027;50.658;14.004;2022-11-18T12:53:46;20.97;45.34
65419;DHT22;52027;50.658;14.004;2022-11-18T12:58:48;20.96;45.29
65419;DHT22;52027;50.658;14.004;2022-11-18T13:01:20;20.96;45.34
65419;DHT22;52027;50.658;14.004;2022-11-18T13:03:46;20.97;45.38
65419;DHT22;52027;50.658;14.004;2022-11-18T13:06:24;20.97;45.32
65419;DHT22;52027;50.658;14.004;2022-11-18T13:08:58;20.97;45.40
65419;DHT22;52027;50.658;14.004;2022-11-18T13:11:26;20.96;45.37
65419;DHT22;52027;50.658;14.004;2022-11-18T13:14:19;20.97;45.34
65419;DHT22;52027;50.658;14.004;2022-11-18T13:22:54;21.00;45.36
65419;DHT22;52027;50.658;14.004;2022-11-18T13:25:38;20.98;45.35
65419;DHT22;52027;50.658;14.004;2022-11-18T13:31:00;20.97;45.38
65419;DHT22;52027;50.658;14.004;2022-11-18T13:33:36;20.98;45.34
65419;DHT22;52027;50.658;14.004;2022-11-18T13:36:02;20.98;45.37
65419;DHT22;52027;50.658;14.004;2022-11-18T13:38:27;20.98;45.40
65419;DHT22;52027;50.658;14.004;2022-11-18T13:40:53;20.98;45.44
65419;DHT22;52027;50.658;14.004;2022-11-18T13:43:35;21.00;45.45
65419;DHT22;52027;50.658;14.004;2022-11-18T13:46:11;20.97;45.45
65419;DHT22;52027;50.658;14.004;2022-11-18T13:48:46;20.98;45.45
65419;DHT22;52027;50.658;14.004;2022-11-18T13:51:14;21.01;45.43
65419;DHT22;52027;50.658;14.004;2022-11-18T13:53:39;21.04;45.43
65419;DHT22;52027;50.658;14.004;2022-11-18T13:56:05;21.01;45.43
65419;DHT22;52027;50.658;14.004;2022-11-18T14:01:04;21.04;45.34
65419;DHT22;52027;50.658;14.004;2022-11-18T14:03:45;21.06;45.35
65419;DHT22;52027;50.658;14.004;2022-11-18T14:06:40;21.04;45.28
65419;DHT22;52027;50.658;14.004;2022-11-18T14:09:25;21.04;45.27
65419;DHT22;52027;50.658;14.004;2022-11-18T14:12:22;21.07;45.19
65419;DHT22;52027;50.658;14.004;2022-11-18T14:14:48;21.06;45.19
65419;DHT22;52027;50.658;14.004;2022-11-18T14:17:49;21.07;45.18
65419;DHT22;52027;50.658;14.004;2022-11-18T14:20:15;21.06;45.18
65419;DHT22;52027;50.658;14.004;2022-11-18T14:22:42;21.07;45.14
65419;DHT22;52027;50.658;14.004;2022-11-18T14:25:29;21.08;45.15
65419;DHT22;52027;50.658;14.004;2022-11-18T14:27:57;21.06;45.09
65419;DHT22;52027;50.658;14.004;2022-11-18T14:30:38;21.08;45.09
65419;DHT22;52027;50.658;14.004;2022-11-18T14:33:22;21.07;45.09
65419;DHT22;52027;50.658;14.004;2022-11-18T14:40:55;21.04;45.09
65419;DHT22;52027;50.658;14.004;2022-11-18T14:43:21;21.04;45.11
65419;DHT22;52027;50.658;14.004;2022-11-18T14:45:47;21.07;45.05
65419;DHT22;52027;50.658;14.004;2022-11-18T14:48:14;21.06;45.06
65419;DHT22;52027;50.658;14.004;2022-11-18T14:50:41;21.08;45.05
65419;DHT22;52027;50.658;14.004;2022-11-18T14:53:09;21.06;45.01
65419;DHT22;52027;50.658;14.004;2022-11-18T14:55:35;21.07;44.98
65419;DHT22;52027;50.658;14.004;2022-11-18T14:58:00;21.10;45.05
65419;DHT22;52027;50.658;14.004;2022-11-18T15:00:26;21.08;44.98
65419;DHT22;52027;50.658;14.004;2022-11-18T15:02:51;21.08;45.01
65419;DHT22;52027;50.658;14.004;2022-11-18T15:05:16;21.07;45.02
65419;DHT22;52027;50.658;14.004;2022-11-18T15:07:42;21.08;44.99
65419;DHT22;52027;50.658;14.004;2022-11-18T15:10:12;21.08;45.02
65419;DHT22;52027;50.658;14.004;2022-11-18T15:12:39;21.07;44.99
65419;DHT22;52027;50.658;14.004;2022-11-18T15:15:04;21.06;45.02
65419;DHT22;52027;50.658;14.004;2022-11-18T15:17:30;21.07;45.02
65419;DHT22;52027;50.658;14.004;2022-11-18T15:19:55;21.07;45.06
65419;DHT22;52027;50.658;14.004;2022-11-18T15:22:21;21.07;45.02
65419;DHT22;52027;50.658;14.004;2022-11-18T15:24:46;21.07;45.04
65419;DHT22;52027;50.658;14.004;2022-11-18T15:27:12;21.08;45.02
65419;DHT22;52027;50.658;14.004;2022-11-18T15:29:37;21.08;45.06
65419;DHT22;52027;50.658;14.004;2022-11-18T15:32:04;21.08;44.98
65419;DHT22;52027;50.658;14.004;2022-11-18T15:34:29;21.11;44.99
65419;DHT22;52027;50.658;14.004;2022-11-18T15:36:54;21.10;44.97
65419;DHT22;52027;50.658;14.004;2022-11-18T15:39:20;21.10;44.95
65419;DHT22;52027;50.658;14.004;2022-11-18T15:41:45;21.10;44.94
65419;DHT22;52027;50.658;14.004;2022-11-18T15:44:11;21.08;44.96
65419;DHT22;52027;50.658;14.004;2022-11-18T15:46:36;21.08;44.94
65419;DHT22;52027;50.658;14.004;2022-11-18T15:49:01;21.08;44.95
65419;DHT22;52027;50.658;14.004;2022-11-18T15:51:28;21.10;44.93
65419;DHT22;52027;50.658;14.004;2022-11-18T15:53:54;21.10;44.90
65419;DHT22;52027;50.658;14.004;2022-11-18T15:59:00;21.10;44.96
65419;DHT22;52027;50.658;14.004;2022-11-18T16:01:34;21.07;44.94
65419;DHT22;52027;50.658;14.004;2022-11-18T16:04:00;21.08;44.90
65419;DHT22;52027;50.658;14.004;2022-11-18T16:06:26;21.11;44.89
65419;DHT22;52027;50.658;14.004;2022-11-18T16:08:52;21.10;44.88
65419;DHT22;52027;50.658;14.004;2022-11-18T16:11:18;21.12;44.83
65419;DHT22;52027;50.658;14.004;2022-11-18T16:14:07;21.12;44.81
65419;DHT22;52027;50.658;14.004;2022-11-18T16:16:33;21.12;44.83
65419;DHT22;52027;50.658;14.004;2022-11-18T16:19:01;21.14;44.84
65419;DHT22;52027;50.658;14.004;2022-11-18T16:21:27;21.12;44.81
65419;DHT22;52027;50.658;14.004;2022-11-18T16:23:57;21.11;44.80
65419;DHT22;52027;50.658;14.004;2022-11-18T16:26:26;21.11;44.77
65419;DHT22;52027;50.658;14.004;2022-11-18T16:28:52;21.11;44.79
65419;DHT22;52027;50.658;14.004;2022-11-18T16:31:18;21.12;44.76
65419;DHT22;52027;50.658;14.004;2022-11-18T16:34:11;21.11;44.76
65419;DHT22;52027;50.658;14.004;2022-11-18T16:36:38;21.10;44.73
65419;DHT22;52027;50.658;14.004;2022-11-18T16:39:09;21.10;44.74
65419;DHT22;52027;50.658;14.004;2022-11-18T16:41:35;21.11;44.74
65419;DHT22;52027;50.658;14.004;2022-11-18T16:44:12;21.12;44.73
65419;DHT22;52027;50.658;14.004;2022-11-18T16:46:40;21.11;44.70
65419;DHT22;52027;50.658;14.004;2022-11-18T16:49:06;21.12;44.69
65419;DHT22;52027;50.658;14.004;2022-11-18T16:51:33;21.11;44.66
65419;DHT22;52027;50.658;14.004;2022-11-18T16:54:04;21.11;44.64
65419;DHT22;52027;50.658;14.004;2022-11-18T16:56:32;21.11;44.64
65419;DHT22;52027;50.658;14.004;2022-11-18T16:59:00;21.11;44.64
65419;DHT22;52027;50.658;14.004;2022-11-18T17:01:27;21.11;44.61
65419;DHT22;52027;50.658;14.004;2022-11-18T17:03:53;21.12;44.61
65419;DHT22;52027;50.658;14.004;2022-11-18T17:06:19;21.12;44.57
65419;DHT22;52027;50.658;14.004;2022-11-18T17:08:44;21.17;44.53
65419;DHT22;52027;50.658;14.004;2022-11-18T17:11:10;21.14;44.50